sensor_id;sensor_type;location;lat;lon;timestamp;pressure;altitude;pressure_sealevel;temperature;humidity
69535;BME280;56754;51.568;5.048;2023-02-26T00:02:13;101805.97;;;7.23;62.84
69535;BME280;56754;51.568;5.048;2023-02-26T00:04:38;101807.28;;;7.20;63.62
69535;BME280;56754;51.568;5.048;2023-02-26T00:07:04;101817.13;;;7.20;63.32
69535;BME280;56754;51.568;5.048;2023-02-26T00:09:30;101808.38;;;7.19;62.61
69535;BME280;56754;51.568;5.048;2023-02-26T00:11:56;101811.81;;;7.20;62.53
69535;BME280;56754;51.568;5.048;2023-02-26T00:14:22;101811.03;;;7.19;62.97
69535;BME280;56754;51.568;5.048;2023-02-26T00:19:49;101826.19;;;7.19;62.56
69535;BME280;56754;51.568;5.048;2023-02-26T00:22:15;101821.13;;;7.17;62.86
69535;BME280;56754;51.568;5.048;2023-02-26T00:24:40;101825.63;;;7.17;63.48
69535;BME280;56754;51.568;5.048;2023-02-26T00:27:05;101827.50;;;7.16;62.23
69535;BME280;56754;51.568;5.048;2023-02-26T00:29:31;101829.34;;;7.16;62.65
69535;BME280;56754;51.568;5.048;2023-02-26T00:31:57;101830.16;;;7.16;62.49
69535;BME280;56754;51.568;5.048;2023-02-26T00:34:22;101841.03;;;7.15;62.55
69535;BME280;56754;51.568;5.048;2023-02-26T00:39:36;101852.75;;;7.14;63.00
69535;BME280;56754;51.568;5.048;2023-02-26T00:42:05;101853.53;;;7.14;63.20
69535;BME280;56754;51.568;5.048;2023-02-26T00:44:31;101863.38;;;7.14;63.00
69535;BME280;56754;51.568;5.048;2023-02-26T00:47:00;101874.81;;;7.14;62.93
69535;BME280;56754;51.568;5.048;2023-02-26T00:52:12;101864.16;;;7.14;63.05
69535;BME280;56754;51.568;5.048;2023-02-26T00:54:38;101868.41;;;7.15;63.20
69535;BME280;56754;51.568;5.048;2023-02-26T00:57:03;101871.88;;;7.16;62.56
69535;BME280;56754;51.568;5.048;2023-02-26T00:59:29;101864.44;;;7.18;62.56
69535;BME280;56754;51.568;5.048;2023-02-26T01:01:54;101867.91;;;7.18;62.45
69535;BME280;56754;51.568;5.048;2023-02-26T01:04:22;101870.56;;;7.18;62.72
69535;BME280;56754;51.568;5.048;2023-02-26T01:06:50;101872.41;;;7.18;63.32
69535;BME280;56754;51.568;5.048;2023-02-26T01:11:55;101872.41;;;7.18;63.00
69535;BME280;56754;51.568;5.048;2023-02-26T01:14:21;101870.03;;;7.16;62.82
69535;BME280;56754;51.568;5.048;2023-02-26T01:24:40;101885.47;;;7.19;62.59
69535;BME280;56754;51.568;5.048;2023-02-26T01:27:06;101887.34;;;7.19;62.31
69535;BME280;56754;51.568;5.048;2023-02-26T01:29:31;101886.81;;;7.22;62.47
69535;BME280;56754;51.568;5.048;2023-02-26T01:32:22;101886.53;;;7.23;62.36
69535;BME280;56754;51.568;5.048;2023-02-26T01:37:55;101891.09;;;7.28;62.55
69535;BME280;56754;51.568;5.048;2023-02-26T01:42:59;101899.31;;;7.26;62.10
69535;BME280;56754;51.568;5.048;2023-02-26T01:45:31;101908.88;;;7.27;61.18
69535;BME280;56754;51.568;5.048;2023-02-26T01:48:04;101912.38;;;7.28;61.59
69535;BME280;56754;51.568;5.048;2023-02-26T01:50:34;101910.75;;;7.27;62.15
69535;BME280;56754;51.568;5.048;2023-02-26T01:53:17;101908.09;;;7.27;61.60
69535;BME280;56754;51.568;5.048;2023-02-26T01:55:44;101916.34;;;7.25;61.87
69535;BME280;56754;51.568;5.048;2023-02-26T01:58:11;101909.69;;;7.23;61.91
69535;BME280;56754;51.568;5.048;2023-02-26T02:00:37;101905.44;;;7.22;61.27
69535;BME280;56754;51.568;5.048;2023-02-26T02:03:03;101915.50;;;7.20;62.55
69535;BME280;56754;51.568;5.048;2023-02-26T02:05:41;101919.75;;;7.21;61.29
69535;BME280;56754;51.568;5.048;2023-02-26T02:08:06;101929.06;;;7.18;62.07
69535;BME280;56754;51.568;5.048;2023-02-26T02:10:32;101923.75;;;7.18;62.13
69535;BME280;56754;51.568;5.048;2023-02-26T02:24:20;101943.66;;;7.11;62.34
69535;BME280;56754;51.568;5.048;2023-02-26T02:27:00;101946.56;;;7.09;62.20
69535;BME280;56754;51.568;5.048;2023-02-26T02:34:52;101938.81;;;7.02;62.48
69535;BME280;56754;51.568;5.048;2023-02-26T02:40:12;101948.66;;;7.02;62.41
69535;BME280;56754;51.568;5.048;2023-02-26T02:45:46;101949.97;;;6.99;62.27
69535;BME280;56754;51.568;5.048;2023-02-26T02:48:26;101952.63;;;6.99;62.29
69535;BME280;56754;51.568;5.048;2023-02-26T02:51:02;101953.69;;;6.98;61.72
69535;BME280;56754;51.568;5.048;2023-02-26T02:53:33;101955.53;;;6.98;61.92
69535;BME280;56754;51.568;5.048;2023-02-26T02:56:15;101962.72;;;6.97;61.82
69535;BME280;56754;51.568;5.048;2023-02-26T02:58:46;101959.53;;;6.95;62.20
69535;BME280;56754;51.568;5.048;2023-02-26T03:01:15;101964.28;;;6.93;61.38
69535;BME280;56754;51.568;5.048;2023-02-26T03:03:52;101960.31;;;6.96;61.59
69535;BME280;56754;51.568;5.048;2023-02-26T03:06:19;101972.25;;;6.93;62.56
69535;BME280;56754;51.568;5.048;2023-02-26T03:08:46;101970.66;;;6.92;62.18
69535;BME280;56754;51.568;5.048;2023-02-26T03:11:12;101972.50;;;6.92;62.38
69535;BME280;56754;51.568;5.048;2023-02-26T03:13:38;101976.50;;;6.89;62.22
69535;BME280;56754;51.568;5.048;2023-02-26T03:24:22;101993.47;;;6.88;61.72
69535;BME280;56754;51.568;5.048;2023-02-26T03:26:57;101988.16;;;6.88;62.11
69535;BME280;56754;51.568;5.048;2023-02-26T03:29:35;101997.22;;;6.87;62.02
69535;BME280;56754;51.568;5.048;2023-02-26T03:32:06;102001.72;;;6.87;62.16
69535;BME280;56754;51.568;5.048;2023-02-26T03:37:24;102012.88;;;6.83;61.78
69535;BME280;56754;51.568;5.048;2023-02-26T03:39:59;102012.03;;;6.83;62.58
69535;BME280;56754;51.568;5.048;2023-02-26T03:42:31;102015.75;;;6.82;62.18
69535;BME280;56754;51.568;5.048;2023-02-26T03:45:13;102021.34;;;6.80;62.24
69535;BME280;56754;51.568;5.048;2023-02-26T03:47:41;102022.13;;;6.81;62.09
69535;BME280;56754;51.568;5.048;2023-02-26T03:50:35;102026.91;;;6.79;61.95
69535;BME280;56754;51.568;5.048;2023-02-26T03:53:05;102033.81;;;6.80;61.59
69535;BME280;56754;51.568;5.048;2023-02-26T03:55:38;102034.88;;;6.79;60.88
69535;BME280;56754;51.568;5.048;2023-02-26T03:58:06;102031.66;;;6.77;62.11
69535;BME280;56754;51.568;5.048;2023-02-26T04:00:32;102027.97;;;6.78;60.92
69535;BME280;56754;51.568;5.048;2023-02-26T04:03:07;102036.19;;;6.76;61.57
69535;BME280;56754;51.568;5.048;2023-02-26T04:05:36;102035.38;;;6.76;60.95
69535;BME280;56754;51.568;5.048;2023-02-26T04:08:03;102033.81;;;6.80;61.39
69535;BME280;56754;51.568;5.048;2023-02-26T04:10:37;102037.72;;;7.04;60.67
69535;BME280;56754;51.568;5.048;2023-02-26T04:13:04;102040.63;;;7.40;59.88
69535;BME280;56754;51.568;5.048;2023-02-26T04:15:29;102036.22;;;7.66;59.06
69535;BME280;56754;51.568;5.048;2023-02-26T04:17:55;102041.63;;;7.87;57.98
69535;BME280;56754;51.568;5.048;2023-02-26T04:20:20;102048.88;;;8.07;57.18
69535;BME280;56754;51.568;5.048;2023-02-26T04:22:45;102044.13;;;8.24;56.59
69535;BME280;56754;51.568;5.048;2023-02-26T04:25:10;102062.28;;;8.42;56.33
69535;BME280;56754;51.568;5.048;2023-02-26T04:27:36;102052.47;;;8.58;55.55
69535;BME280;56754;51.568;5.048;2023-02-26T04:30:01;102054.88;;;8.70;55.30
69535;BME280;56754;51.568;5.048;2023-02-26T04:32:26;102071.16;;;8.79;54.65
69535;BME280;56754;51.568;5.048;2023-02-26T04:34:52;102069.81;;;8.86;53.91
69535;BME280;56754;51.568;5.048;2023-02-26T04:37:17;102073.53;;;8.96;53.28
69535;BME280;56754;51.568;5.048;2023-02-26T04:39:42;102084.19;;;9.01;53.36
69535;BME280;56754;51.568;5.048;2023-02-26T04:42:08;102073.81;;;8.99;53.38
69535;BME280;56754;51.568;5.048;2023-02-26T04:44:33;102081.28;;;8.97;53.39
69535;BME280;56754;51.568;5.048;2023-02-26T04:46:58;102077.53;;;8.93;53.27
69535;BME280;56754;51.568;5.048;2023-02-26T04:49:23;102083.94;;;8.87;53.44
69535;BME280;56754;51.568;5.048;2023-02-26T04:51:49;102090.31;;;8.81;53.22
69535;BME280;56754;51.568;5.048;2023-02-26T04:54:14;102097.00;;;8.73;53.61
69535;BME280;56754;51.568;5.048;2023-02-26T04:56:39;102095.66;;;8.65;53.84
69535;BME280;56754;51.568;5.048;2023-02-26T04:59:05;102099.66;;;8.58;54.05
69535;BME280;56754;51.568;5.048;2023-02-26T05:01:30;102097.50;;;8.50;54.20
69535;BME280;56754;51.568;5.048;2023-02-26T05:03:55;102101.47;;;8.42;54.50
69535;BME280;56754;51.568;5.048;2023-02-26T05:06:21;102097.44;;;8.34;54.71
69535;BME280;56754;51.568;5.048;2023-02-26T05:08:46;102104.84;;;8.27;54.66
69535;BME280;56754;51.568;5.048;2023-02-26T05:11:12;102116.56;;;8.21;54.86
69535;BME280;56754;51.568;5.048;2023-02-26T05:13:37;102113.06;;;8.15;55.13
69535;BME280;56754;51.568;5.048;2023-02-26T05:16:03;102109.59;;;8.10;54.87
69535;BME280;56754;51.568;5.048;2023-02-26T05:18:28;102104.25;;;8.05;55.49
69535;BME280;56754;51.568;5.048;2023-02-26T05:20:54;102109.00;;;7.97;55.28
69535;BME280;56754;51.568;5.048;2023-02-26T05:23:20;102108.72;;;7.94;55.45
69535;BME280;56754;51.568;5.048;2023-02-26T05:25:46;102111.63;;;7.87;55.47
69535;BME280;56754;51.568;5.048;2023-02-26T05:28:11;102116.66;;;7.84;55.20
69535;BME280;56754;51.568;5.048;2023-02-26T05:30:36;102111.56;;;7.77;55.42
69535;BME280;56754;51.568;5.048;2023-02-26T05:33:02;102116.63;;;7.73;55.21
69535;BME280;56754;51.568;5.048;2023-02-26T05:35:27;102116.56;;;7.68;55.12
69535;BME280;56754;51.568;5.048;2023-02-26T05:37:52;102126.38;;;7.63;55.56
69535;BME280;56754;51.568;5.048;2023-02-26T05:40:18;102127.41;;;7.57;55.50
69535;BME280;56754;51.568;5.048;2023-02-26T05:42:43;102137.78;;;7.53;55.00
69535;BME280;56754;51.568;5.048;2023-02-26T05:45:08;102136.16;;;7.47;55.65
69535;BME280;56754;51.568;5.048;2023-02-26T05:47:34;102143.28;;;7.41;55.99
69535;BME280;56754;51.568;5.048;2023-02-26T05:50:00;102145.38;;;7.34;55.96
69535;BME280;56754;51.568;5.048;2023-02-26T05:52:25;102151.19;;;7.31;55.75
69535;BME280;56754;51.568;5.048;2023-02-26T05:54:51;102153.81;;;7.26;56.03
69535;BME280;56754;51.568;5.048;2023-02-26T05:57:16;102142.88;;;7.22;55.89
69535;BME280;56754;51.568;5.048;2023-02-26T05:59:41;102156.13;;;7.17;56.38
69535;BME280;56754;51.568;5.048;2023-02-26T06:02:07;102158.50;;;7.14;56.51
69535;BME280;56754;51.568;5.048;2023-02-26T06:04:33;102157.66;;;7.08;56.83
69535;BME280;56754;51.568;5.048;2023-02-26T06:06:58;102161.06;;;7.03;56.27
69535;BME280;56754;51.568;5.048;2023-02-26T06:09:24;102166.88;;;7.00;56.66
69535;BME280;56754;51.568;5.048;2023-02-26T06:11:49;102172.69;;;6.97;57.08
69535;BME280;56754;51.568;5.048;2023-02-26T06:14:14;102170.00;;;6.92;57.29
69535;BME280;56754;51.568;5.048;2023-02-26T06:16:40;102175.84;;;6.89;56.89
69535;BME280;56754;51.568;5.048;2023-02-26T06:19:05;102178.16;;;6.86;57.48
69535;BME280;56754;51.568;5.048;2023-02-26T06:21:30;102183.19;;;6.82;58.20
69535;BME280;56754;51.568;5.048;2023-02-26T06:23:56;102188.84;;;6.91;58.48
69535;BME280;56754;51.568;5.048;2023-02-26T06:26:21;102183.22;;;7.14;57.99
69535;BME280;56754;51.568;5.048;2023-02-26T06:28:46;102197.84;;;7.44;57.21
69535;BME280;56754;51.568;5.048;2023-02-26T06:31:11;102195.06;;;7.66;56.83
69535;BME280;56754;51.568;5.048;2023-02-26T06:33:37;102198.38;;;7.83;55.67
69535;BME280;56754;51.568;5.048;2023-02-26T06:36:02;102207.28;;;7.99;55.13
69535;BME280;56754;51.568;5.048;2023-02-26T06:38:28;102203.91;;;8.14;54.65
69535;BME280;56754;51.568;5.048;2023-02-26T06:40:53;102210.88;;;8.30;54.22
69535;BME280;56754;51.568;5.048;2023-02-26T06:43:19;102220.03;;;8.45;53.53
69535;BME280;56754;51.568;5.048;2023-02-26T06:45:44;102219.03;;;8.56;53.11
69535;BME280;56754;51.568;5.048;2023-02-26T06:48:10;102223.84;;;8.64;53.21
69535;BME280;56754;51.568;5.048;2023-02-26T06:50:35;102229.19;;;8.69;52.65
69535;BME280;56754;51.568;5.048;2023-02-26T06:53:00;102232.41;;;8.71;52.35
69535;BME280;56754;51.568;5.048;2023-02-26T06:55:25;102232.69;;;8.75;51.78
69535;BME280;56754;51.568;5.048;2023-02-26T06:57:54;102242.81;;;8.78;51.65
69535;BME280;56754;51.568;5.048;2023-02-26T07:00:20;102253.75;;;8.76;51.33
69535;BME280;56754;51.568;5.048;2023-02-26T07:02:46;102262.53;;;8.72;51.79
69535;BME280;56754;51.568;5.048;2023-02-26T07:05:11;102271.31;;;8.67;51.88
69535;BME280;56754;51.568;5.048;2023-02-26T07:07:37;102275.81;;;8.61;51.49
69535;BME280;56754;51.568;5.048;2023-02-26T07:10:03;102276.06;;;8.55;51.74
69535;BME280;56754;51.568;5.048;2023-02-26T07:12:28;102273.88;;;8.47;51.76
69535;BME280;56754;51.568;5.048;2023-02-26T07:14:53;102289.28;;;8.39;52.78
69535;BME280;56754;51.568;5.048;2023-02-26T07:17:19;102292.16;;;8.33;52.53
69535;BME280;56754;51.568;5.048;2023-02-26T07:19:46;102289.44;;;8.28;52.88
69535;BME280;56754;51.568;5.048;2023-02-26T07:22:11;102301.41;;;8.20;53.39
69535;BME280;56754;51.568;5.048;2023-02-26T07:24:36;102301.38;;;8.15;53.24
69535;BME280;56754;51.568;5.048;2023-02-26T07:27:02;102306.66;;;8.10;54.12
69535;BME280;56754;51.568;5.048;2023-02-26T07:29:27;102306.63;;;8.05;54.12
69535;BME280;56754;51.568;5.048;2023-02-26T07:31:52;102312.47;;;8.02;54.09
69535;BME280;56754;51.568;5.048;2023-02-26T07:34:17;102322.28;;;7.96;53.95
69535;BME280;56754;51.568;5.048;2023-02-26T07:36:43;102316.91;;;7.91;54.54
69535;BME280;56754;51.568;5.048;2023-02-26T07:39:09;102331.53;;;7.88;54.30
69535;BME280;56754;51.568;5.048;2023-02-26T07:41:35;102331.47;;;7.83;54.18
69535;BME280;56754;51.568;5.048;2023-02-26T07:44:00;102330.38;;;7.79;53.82
69535;BME280;56754;51.568;5.048;2023-02-26T07:46:25;102338.06;;;7.75;54.02
69535;BME280;56754;51.568;5.048;2023-02-26T07:48:51;102340.44;;;7.72;53.76
69535;BME280;56754;51.568;5.048;2023-02-26T07:51:17;102339.31;;;7.68;54.12
69535;BME280;56754;51.568;5.048;2023-02-26T07:53:42;102349.41;;;7.66;54.23
69535;BME280;56754;51.568;5.048;2023-02-26T07:56:08;102342.19;;;7.61;54.52
69535;BME280;56754;51.568;5.048;2023-02-26T07:58:33;102352.56;;;7.58;54.66
69535;BME280;56754;51.568;5.048;2023-02-26T08:00:58;102347.72;;;7.55;54.81
69535;BME280;56754;51.568;5.048;2023-02-26T08:03:23;102357.81;;;7.52;55.02
69535;BME280;56754;51.568;5.048;2023-02-26T08:05:49;102353.00;;;7.49;55.14
69535;BME280;56754;51.568;5.048;2023-02-26T08:08:14;102358.56;;;7.48;54.71
69535;BME280;56754;51.568;5.048;2023-02-26T08:10:39;102365.72;;;7.47;54.84
69535;BME280;56754;51.568;5.048;2023-02-26T08:13:05;102362.53;;;7.45;55.01
69535;BME280;56754;51.568;5.048;2023-02-26T08:15:30;102361.19;;;7.43;55.05
69535;BME280;56754;51.568;5.048;2023-02-26T08:17:55;102371.00;;;7.42;55.06
69535;BME280;56754;51.568;5.048;2023-02-26T08:20:21;102388.81;;;7.42;55.51
69535;BME280;56754;51.568;5.048;2023-02-26T08:22:46;102385.13;;;7.43;55.52
69535;BME280;56754;51.568;5.048;2023-02-26T08:25:11;102381.19;;;7.50;55.90
69535;BME280;56754;51.568;5.048;2023-02-26T08:27:37;102382.47;;;7.70;55.36
69535;BME280;56754;51.568;5.048;2023-02-26T08:30:03;102384.78;;;7.88;54.97
69535;BME280;56754;51.568;5.048;2023-02-26T08:32:29;102391.34;;;8.08;54.75
69535;BME280;56754;51.568;5.048;2023-02-26T08:34:54;102385.63;;;8.26;53.85
69535;BME280;56754;51.568;5.048;2023-02-26T08:37:20;102396.47;;;8.47;54.00
69535;BME280;56754;51.568;5.048;2023-02-26T08:39:45;102397.63;;;8.66;53.77
69535;BME280;56754;51.568;5.048;2023-02-26T08:42:10;102405.47;;;8.83;52.73
69535;BME280;56754;51.568;5.048;2023-02-26T08:44:35;102409.53;;;8.96;52.82
69535;BME280;56754;51.568;5.048;2023-02-26T08:47:01;102414.38;;;9.04;52.11
69535;BME280;56754;51.568;5.048;2023-02-26T08:49:26;102412.28;;;9.11;52.02
69535;BME280;56754;51.568;5.048;2023-02-26T08:51:51;102417.09;;;9.14;51.62
69535;BME280;56754;51.568;5.048;2023-02-26T08:54:17;102416.31;;;9.19;51.46
69535;BME280;56754;51.568;5.048;2023-02-26T08:56:42;102424.59;;;9.22;50.76
69535;BME280;56754;51.568;5.048;2023-02-26T08:59:07;102419.00;;;9.24;50.27
69535;BME280;56754;51.568;5.048;2023-02-26T09:01:33;102421.91;;;9.22;50.03
69535;BME280;56754;51.568;5.048;2023-02-26T09:03:58;102431.25;;;9.20;49.92
69535;BME280;56754;51.568;5.048;2023-02-26T09:06:23;102429.09;;;9.17;50.35
69535;BME280;56754;51.568;5.048;2023-02-26T09:08:49;102433.91;;;9.15;50.12
69535;BME280;56754;51.568;5.048;2023-02-26T09:11:14;102434.16;;;9.13;50.17
69535;BME280;56754;51.568;5.048;2023-02-26T09:13:40;102441.63;;;9.11;50.09
69535;BME280;56754;51.568;5.048;2023-02-26T09:16:05;102447.22;;;9.09;50.46
69535;BME280;56754;51.568;5.048;2023-02-26T09:18:31;102451.19;;;9.07;51.01
69535;BME280;56754;51.568;5.048;2023-02-26T09:20:56;102450.66;;;9.05;50.99
69535;BME280;56754;51.568;5.048;2023-02-26T09:23:21;102455.47;;;9.03;50.77
69535;BME280;56754;51.568;5.048;2023-02-26T09:25:51;102448.78;;;9.00;50.67
69535;BME280;56754;51.568;5.048;2023-02-26T09:28:17;102455.41;;;8.98;51.49
69535;BME280;56754;51.568;5.048;2023-02-26T09:30:42;102462.88;;;8.96;51.52
69535;BME280;56754;51.568;5.048;2023-02-26T09:33:07;102458.06;;;8.93;51.35
69535;BME280;56754;51.568;5.048;2023-02-26T09:35:33;102465.53;;;8.91;51.39
69535;BME280;56754;51.568;5.048;2023-02-26T09:37:58;102462.31;;;8.88;51.38
69535;BME280;56754;51.568;5.048;2023-02-26T09:40:42;102460.94;;;8.86;50.99
69535;BME280;56754;51.568;5.048;2023-02-26T09:46:29;102478.53;;;8.82;51.35
69535;BME280;56754;51.568;5.048;2023-02-26T09:51:27;102472.09;;;8.78;51.64
69535;BME280;56754;51.568;5.048;2023-02-26T09:53:54;102486.50;;;8.77;51.50
69535;BME280;56754;51.568;5.048;2023-02-26T09:56:22;102487.00;;;8.74;51.92
69535;BME280;56754;51.568;5.048;2023-02-26T09:58:49;102489.91;;;8.72;51.96
69535;BME280;56754;51.568;5.048;2023-02-26T10:01:36;102500.03;;;8.70;51.88
69535;BME280;56754;51.568;5.048;2023-02-26T10:07:02;102501.09;;;8.69;52.65
69535;BME280;56754;51.568;5.048;2023-02-26T10:10:19;102511.22;;;8.67;52.70
69535;BME280;56754;51.568;5.048;2023-02-26T10:12:36;102510.38;;;8.66;53.09
69535;BME280;56754;51.568;5.048;2023-02-26T10:18:05;102522.13;;;8.65;53.45
69535;BME280;56754;51.568;5.048;2023-02-26T10:23:19;102518.09;;;8.63;53.38
69535;BME280;56754;51.568;5.048;2023-02-26T10:25:49;102519.16;;;8.62;53.85
69535;BME280;56754;51.568;5.048;2023-02-26T10:28:33;102522.06;;;8.60;53.97
69535;BME280;56754;51.568;5.048;2023-02-26T10:31:28;102524.72;;;8.60;53.38
69535;BME280;56754;51.568;5.048;2023-02-26T10:36:29;102524.94;;;8.54;53.54
69535;BME280;56754;51.568;5.048;2023-02-26T10:39:01;102523.09;;;8.54;53.77
69535;BME280;56754;51.568;5.048;2023-02-26T10:41:30;102523.34;;;8.53;53.89
69535;BME280;56754;51.568;5.048;2023-02-26T10:44:02;102518.03;;;8.53;54.20
69535;BME280;56754;51.568;5.048;2023-02-26T10:46:40;102518.03;;;8.53;55.25
69535;BME280;56754;51.568;5.048;2023-02-26T10:49:29;102524.16;;;8.53;55.97
69535;BME280;56754;51.568;5.048;2023-02-26T10:52:22;102521.25;;;8.55;56.24
69535;BME280;56754;51.568;5.048;2023-02-26T10:57:45;102523.91;;;8.55;55.95
69535;BME280;56754;51.568;5.048;2023-02-26T11:00:18;102532.44;;;8.57;56.35
69535;BME280;56754;51.568;5.048;2023-02-26T11:02:49;102524.44;;;8.57;56.08
69535;BME280;56754;51.568;5.048;2023-02-26T11:05:19;102529.78;;;8.57;56.21
69535;BME280;56754;51.568;5.048;2023-02-26T11:07:51;102535.09;;;8.57;55.87
69535;BME280;56754;51.568;5.048;2023-02-26T11:10:22;102550.28;;;8.56;56.10
69535;BME280;56754;51.568;5.048;2023-02-26T11:12:48;102548.69;;;8.55;55.19
69535;BME280;56754;51.568;5.048;2023-02-26T11:15:16;102538.03;;;8.55;55.96
69535;BME280;56754;51.568;5.048;2023-02-26T11:17:42;102548.44;;;8.57;55.89
69535;BME280;56754;51.568;5.048;2023-02-26T11:20:29;102545.53;;;8.58;55.95
69535;BME280;56754;51.568;5.048;2023-02-26T11:22:57;102547.38;;;8.58;55.85
69535;BME280;56754;51.568;5.048;2023-02-26T11:25:25;102535.91;;;8.57;55.48
69535;BME280;56754;51.568;5.048;2023-02-26T11:27:57;102535.91;;;8.57;54.95
69535;BME280;56754;51.568;5.048;2023-02-26T11:30:26;102551.09;;;8.57;55.45
69535;BME280;56754;51.568;5.048;2023-02-26T11:32:57;102543.66;;;8.59;56.09
69535;BME280;56754;51.568;5.048;2023-02-26T11:35:24;102535.41;;;8.60;56.58
69535;BME280;56754;51.568;5.048;2023-02-26T11:37:57;102524.50;;;8.62;56.12
69535;BME280;56754;51.568;5.048;2023-02-26T11:40:37;102527.97;;;8.62;56.88
69535;BME280;56754;51.568;5.048;2023-02-26T11:43:07;102537.81;;;8.62;56.17
69535;BME280;56754;51.568;5.048;2023-02-26T11:45:38;102538.63;;;8.62;56.13
69535;BME280;56754;51.568;5.048;2023-02-26T11:48:08;102537.81;;;8.62;56.14
69535;BME280;56754;51.568;5.048;2023-02-26T11:50:41;102535.16;;;8.62;55.58
69535;BME280;56754;51.568;5.048;2023-02-26T11:53:19;102532.50;;;8.62;55.89
69535;BME280;56754;51.568;5.048;2023-02-26T11:55:51;102533.28;;;8.62;55.77
69535;BME280;56754;51.568;5.048;2023-02-26T11:58:22;102529.81;;;8.62;55.14
69535;BME280;56754;51.568;5.048;2023-02-26T12:00:50;102529.03;;;8.61;55.02
69535;BME280;56754;51.568;5.048;2023-02-26T12:03:20;102524.50;;;8.62;54.95
69535;BME280;56754;51.568;5.048;2023-02-26T12:05:45;102521.81;;;8.62;55.55
69535;BME280;56754;51.568;5.048;2023-02-26T12:08:31;102529.31;;;8.65;56.48
69535;BME280;56754;51.568;5.048;2023-02-26T12:14:00;102517.06;;;8.69;57.46
69535;BME280;56754;51.568;5.048;2023-02-26T12:24:33;102525.63;;;8.71;57.14
69535;BME280;56754;51.568;5.048;2023-02-26T12:35:16;102509.69;;;8.81;57.77
69535;BME280;56754;51.568;5.048;2023-02-26T12:37:53;102518.53;;;8.87;57.62
69535;BME280;56754;51.568;5.048;2023-02-26T12:46:13;102526.66;;;9.02;57.86
69535;BME280;56754;51.568;5.048;2023-02-26T12:56:46;102509.44;;;9.25;57.30
69535;BME280;56754;51.568;5.048;2023-02-26T12:59:47;102519.91;;;9.32;56.94
69535;BME280;56754;51.568;5.048;2023-02-26T13:08:14;102515.44;;;9.48;55.30
69535;BME280;56754;51.568;5.048;2023-02-26T13:21:35;102514.47;;;9.74;54.63
69535;BME280;56754;51.568;5.048;2023-02-26T13:24:08;102509.16;;;9.79;55.06
69535;BME280;56754;51.568;5.048;2023-02-26T13:26:36;102518.00;;;9.85;54.65
69535;BME280;56754;51.568;5.048;2023-02-26T13:29:13;102511.59;;;9.91;54.13
69535;BME280;56754;51.568;5.048;2023-02-26T13:34:30;102514.56;;;10.00;53.47
69535;BME280;56754;51.568;5.048;2023-02-26T13:36:58;102510.81;;;10.01;53.54
69535;BME280;56754;51.568;5.048;2023-02-26T13:42:37;102503.09;;;10.10;53.27
69535;BME280;56754;51.568;5.048;2023-02-26T13:45:42;102500.97;;;10.12;53.84
69535;BME280;56754;51.568;5.048;2023-02-26T14:06:41;102505.56;;;10.37;50.44
69535;BME280;56754;51.568;5.048;2023-02-26T14:19:41;102501.81;;;10.58;50.89
69535;BME280;56754;51.568;5.048;2023-02-26T14:22:21;102508.25;;;10.62;51.85
69535;BME280;56754;51.568;5.048;2023-02-26T14:35:23;102507.97;;;10.89;53.92
69535;BME280;56754;51.568;5.048;2023-02-26T14:38:02;102500.72;;;10.95;53.36
69535;BME280;56754;51.568;5.048;2023-02-26T14:40:32;102511.41;;;11.00;53.61
69535;BME280;56754;51.568;5.048;2023-02-26T14:43:02;102506.34;;;11.04;53.45
69535;BME280;56754;51.568;5.048;2023-02-26T14:45:36;102508.19;;;11.08;53.60
69535;BME280;56754;51.568;5.048;2023-02-26T14:48:10;102497.47;;;11.13;52.36
69535;BME280;56754;51.568;5.048;2023-02-26T15:01:51;102496.63;;;11.33;51.65
69535;BME280;56754;51.568;5.048;2023-02-26T15:09:46;102516.09;;;11.44;53.10
69535;BME280;56754;51.568;5.048;2023-02-26T15:12:34;102505.66;;;11.48;52.93
69535;BME280;56754;51.568;5.048;2023-02-26T15:15:18;102510.47;;;11.51;52.52
69535;BME280;56754;51.568;5.048;2023-02-26T15:17:48;102513.13;;;11.56;51.96
69535;BME280;56754;51.568;5.048;2023-02-26T15:20:29;102509.63;;;11.60;51.43
69535;BME280;56754;51.568;5.048;2023-02-26T15:23:25;102502.94;;;11.63;51.95
69535;BME280;56754;51.568;5.048;2023-02-26T15:25:52;102500.50;;;11.67;51.76
69535;BME280;56754;51.568;5.048;2023-02-26T15:28:37;102511.44;;;11.70;51.75
69535;BME280;56754;51.568;5.048;2023-02-26T15:31:06;102508.50;;;11.72;51.83
69535;BME280;56754;51.568;5.048;2023-02-26T15:33:32;102516.00;;;11.75;51.92
69535;BME280;56754;51.568;5.048;2023-02-26T15:35:59;102516.25;;;11.78;52.45
69535;BME280;56754;51.568;5.048;2023-02-26T15:38:25;102505.53;;;11.78;51.96
69535;BME280;56754;51.568;5.048;2023-02-26T15:40:53;102514.88;;;11.81;51.73
69535;BME280;56754;51.568;5.048;2023-02-26T15:43:24;102518.06;;;11.83;51.48
69535;BME280;56754;51.568;5.048;2023-02-26T15:45:53;102524.53;;;11.87;51.34
69535;BME280;56754;51.568;5.048;2023-02-26T15:48:29;102528.53;;;11.90;51.14
69535;BME280;56754;51.568;5.048;2023-02-26T15:50:59;102528.25;;;11.91;50.82
69535;BME280;56754;51.568;5.048;2023-02-26T15:53:31;102522.63;;;11.93;52.03
69535;BME280;56754;51.568;5.048;2023-02-26T15:56:00;102528.78;;;11.93;50.88
69535;BME280;56754;51.568;5.048;2023-02-26T16:01:02;102529.88;;;11.92;51.21
69535;BME280;56754;51.568;5.048;2023-02-26T16:03:37;102534.94;;;11.94;50.96
69535;BME280;56754;51.568;5.048;2023-02-26T16:06:03;102535.72;;;11.94;50.70
69535;BME280;56754;51.568;5.048;2023-02-26T16:08:28;102531.72;;;11.92;50.86
69535;BME280;56754;51.568;5.048;2023-02-26T16:10:56;102528.81;;;11.88;50.46
69535;BME280;56754;51.568;5.048;2023-02-26T16:13:34;102527.19;;;11.82;50.83
69535;BME280;56754;51.568;5.048;2023-02-26T16:16:06;102528.84;;;11.78;51.00
69535;BME280;56754;51.568;5.048;2023-02-26T16:18:32;102536.88;;;11.73;50.88
69535;BME280;56754;51.568;5.048;2023-02-26T16:20:59;102535.03;;;11.68;48.74
69535;BME280;56754;51.568;5.048;2023-02-26T16:23:47;102542.31;;;11.63;48.19